createdAt,value
2019-04-06T10:05:03.382Z,99243
2019-04-06T10:10:03.370Z,99239
2019-04-06T10:15:03.369Z,99243
2019-04-06T10:20:03.385Z,99242
2019-04-06T10:25:03.383Z,99238
2019-04-06T10:30:03.357Z,99231
2019-04-06T10:35:03.369Z,99229
2019-04-06T10:40:03.394Z,99224
2019-04-06T10:45:03.362Z,99223
2019-04-06T10:50:03.637Z,99217
2019-04-06T10:55:03.411Z,99216
2019-04-06T11:00:03.571Z,99215
2019-04-06T11:05:03.394Z,99217
2019-04-06T11:10:03.371Z,99207
2019-04-06T11:15:03.460Z,99201
2019-04-06T11:20:03.387Z,99203
2019-04-06T11:25:03.422Z,99194
2019-04-06T11:30:12.723Z,99194
2019-04-06T11:35:03.369Z,99172
2019-04-06T11:40:03.451Z,99174
2019-04-06T11:45:03.418Z,99170
2019-04-06T11:50:03.714Z,99171
2019-04-06T11:55:03.659Z,99169
2019-04-06T12:00:03.558Z,99164
2019-04-06T12:05:03.438Z,99165
2019-04-06T12:10:03.578Z,99172
2019-04-06T12:15:03.423Z,99160
2019-04-06T12:20:03.431Z,99166
2019-04-06T12:25:03.534Z,99168
2019-04-06T12:30:03.426Z,99152
2019-04-06T12:35:03.449Z,99144
2019-04-06T12:40:03.538Z,99136
2019-04-06T12:45:03.771Z,99128
2019-04-06T12:50:03.809Z,99127
2019-04-06T12:55:03.762Z,99121
2019-04-06T13:00:03.553Z,99121
2019-04-06T13:05:03.416Z,99105
2019-04-06T13:10:03.711Z,99097
2019-04-06T13:15:03.462Z,99093
2019-04-06T13:20:03.763Z,99089
2019-04-06T13:25:03.794Z,99088
2019-04-06T13:30:03.434Z,99072
2019-04-06T13:35:03.474Z,99073
2019-04-06T13:40:03.459Z,99060
2019-04-06T13:45:03.789Z,99059
2019-04-06T13:50:03.483Z,99055
2019-04-06T13:55:03.470Z,99060
2019-04-06T14:00:03.514Z,99053
2019-04-06T14:05:03.480Z,99048
2019-04-06T14:10:03.486Z,99056
2019-04-06T14:15:03.477Z,99062
2019-04-06T14:20:03.776Z,99050
2019-04-06T14:25:03.767Z,99038
2019-04-06T14:30:03.454Z,99050
2019-04-06T14:35:03.549Z,99043
2019-04-06T14:40:03.483Z,99043
2019-04-06T14:45:03.491Z,99043
2019-04-06T14:50:03.509Z,99034
2019-04-06T14:55:03.548Z,99042
2019-04-06T15:00:03.463Z,99034
2019-04-06T15:05:03.495Z,99024
2019-04-06T15:10:03.497Z,99026
2019-04-06T15:15:03.499Z,99034
2019-04-06T15:20:03.521Z,99029
2019-04-06T15:25:03.511Z,99020
2019-04-06T15:30:03.475Z,99025
2019-04-06T15:35:03.522Z,99030
2019-04-06T15:40:03.526Z,99025
2019-04-06T15:45:03.530Z,99024
2019-04-06T15:50:03.491Z,99024
2019-04-06T15:55:03.518Z,99012
2019-04-06T16:00:03.520Z,99014
2019-04-06T16:05:03.526Z,99020
2019-04-06T16:10:03.534Z,99018
2019-04-06T16:15:03.535Z,99026
2019-04-06T16:20:03.547Z,99030
2019-04-06T16:25:03.608Z,99024
2019-04-06T16:30:03.697Z,99033
2019-04-06T16:35:03.544Z,99033
2019-04-06T16:40:03.537Z,99032
2019-04-06T16:45:03.715Z,99039
2019-04-06T16:50:03.727Z,99032
2019-04-06T16:55:03.555Z,99038
2019-04-06T17:00:11.388Z,99037
2019-04-06T17:05:03.649Z,99047
2019-04-06T17:10:03.573Z,99052
2019-04-06T17:15:05.119Z,99050
2019-04-06T17:20:03.558Z,99051
2019-04-06T17:25:03.701Z,99050
2019-04-06T17:30:03.559Z,99042
2019-04-06T17:35:03.754Z,99051
2019-04-06T17:40:03.542Z,99061
2019-04-06T17:45:03.576Z,99067
2019-04-06T17:50:03.551Z,99070
2019-04-06T17:55:03.809Z,99079
2019-04-06T18:00:04.344Z,99084
2019-04-06T18:05:03.542Z,99091
2019-04-06T18:10:03.589Z,99093
2019-04-06T18:15:03.597Z,99100
2019-04-06T18:20:03.737Z,99096
2019-04-06T18:25:04.110Z,99111
2019-04-06T18:30:03.591Z,99117
2019-04-06T18:35:04.043Z,99124
2019-04-06T18:40:03.734Z,99132
2019-04-06T18:45:03.617Z,99136
2019-04-06T18:50:03.597Z,99132
2019-04-06T18:55:03.754Z,99139
2019-04-06T19:00:03.604Z,99139
2019-04-06T19:05:03.616Z,99146
2019-04-06T19:10:04.116Z,99143
2019-04-06T19:15:03.620Z,99148
2019-04-06T19:20:03.612Z,99151
2019-04-06T19:25:03.745Z,99154
2019-04-06T19:30:03.620Z,99149
2019-04-06T19:35:04.080Z,99151
2019-04-06T19:40:03.638Z,99152
2019-04-06T19:45:03.628Z,99140
2019-04-06T19:50:03.632Z,99158
2019-04-06T19:55:03.601Z,99156
2019-04-06T20:00:03.633Z,99148
2019-04-06T20:05:03.787Z,99161
2019-04-06T20:10:03.641Z,99163
2019-04-06T20:15:03.988Z,99153
2019-04-06T20:20:03.613Z,99149
2019-04-06T20:25:03.637Z,99157
2019-04-06T20:30:03.653Z,99156
2019-04-06T20:35:04.187Z,99149
2019-04-06T20:40:03.647Z,99147
2019-04-06T20:45:03.659Z,99150
2019-04-06T20:50:03.734Z,99152
2019-04-06T20:55:03.692Z,99150
2019-04-06T21:00:04.364Z,99158
2019-04-06T21:05:03.629Z,99159
2019-04-06T21:10:04.169Z,99157
2019-04-06T21:15:15.837Z,99161
2019-04-06T21:20:03.676Z,99158
2019-04-06T21:25:03.734Z,99170
2019-04-06T21:30:03.646Z,99166
2019-04-06T21:35:04.576Z,99169
2019-04-06T21:40:03.845Z,99161
2019-04-06T21:45:03.928Z,99167
2019-04-06T21:50:03.743Z,99161
2019-04-06T21:55:03.747Z,99163
2019-04-06T22:00:04.247Z,99168
2019-04-06T22:05:03.706Z,99158
2019-04-06T22:10:03.757Z,99172
2019-04-06T22:15:04.094Z,99173
2019-04-06T22:20:04.123Z,99159
2019-04-06T22:25:04.231Z,99168
2019-04-06T22:30:03.708Z,99166
2019-04-06T22:35:03.712Z,99163
2019-04-06T22:40:03.795Z,99165
2019-04-06T22:45:03.764Z,99166
2019-04-06T22:50:03.827Z,99176
2019-04-06T22:55:03.712Z,99161
2019-04-06T23:00:03.885Z,99165
2019-04-06T23:05:03.870Z,99156
2019-04-06T23:10:04.211Z,99167
2019-04-06T23:15:03.734Z,99167
2019-04-06T23:20:03.720Z,99168
2019-04-06T23:25:03.930Z,99166
2019-04-06T23:30:03.734Z,99164
2019-04-06T23:35:03.732Z,99157
2019-04-06T23:40:04.256Z,99158
2019-04-06T23:45:03.721Z,99163
2019-04-06T23:50:03.746Z,99167
2019-04-06T23:55:03.762Z,99165
